createdAt,value
2024-01-20T09:02:21.622Z,96480.00
2024-01-20T09:02:59.212Z,96476.00
2024-01-20T09:03:59.167Z,96478.00
2024-01-20T09:04:59.130Z,96477.00
2024-01-20T09:05:59.161Z,96479.00
2024-01-20T09:06:59.137Z,96477.00
2024-01-20T09:07:59.112Z,96478.00
2024-01-20T09:08:59.117Z,96476.00
2024-01-20T09:09:59.794Z,96477.00
2024-01-20T09:10:59.139Z,96474.00
2024-01-20T09:11:59.148Z,96475.00
2024-01-20T09:12:59.102Z,96475.00
2024-01-20T09:13:59.117Z,96475.00
2024-01-20T09:14:59.211Z,96476.00
2024-01-20T09:15:59.252Z,96477.00
2024-01-20T09:16:59.146Z,96476.00
2024-01-20T09:17:59.200Z,96476.00
2024-01-20T09:18:59.222Z,96477.00
2024-01-20T09:19:59.337Z,96480.00
2024-01-20T09:20:59.138Z,96479.00
2024-01-20T09:21:59.086Z,96481.00
2024-01-20T09:22:59.084Z,96481.00
2024-01-20T09:23:59.139Z,96482.00
2024-01-20T09:24:59.152Z,96479.00
2024-01-20T09:25:59.219Z,96481.00
2024-01-20T09:26:59.310Z,96481.00
2024-01-20T09:27:59.298Z,96482.00
2024-01-20T09:28:59.385Z,96483.00
2024-01-20T09:29:59.463Z,96485.00
2024-01-20T09:30:59.500Z,96486.00
2024-01-20T09:31:59.583Z,96484.00
2024-01-20T09:32:59.760Z,96486.00
2024-01-20T09:33:59.759Z,96486.00
2024-01-20T09:34:59.744Z,96487.00
2024-01-20T09:35:59.795Z,96487.00
2024-01-20T09:36:59.879Z,96485.00
2024-01-20T09:37:59.934Z,96484.00
2024-01-20T09:39:00.002Z,96482.00
2024-01-20T09:40:07.349Z,96484.00
2024-01-20T09:41:07.332Z,96483.00
2024-01-20T09:42:07.432Z,96484.00
2024-01-20T09:43:07.326Z,96484.00
2024-01-20T09:44:07.346Z,96480.00
2024-01-20T09:45:07.365Z,96478.00
2024-01-20T09:46:07.346Z,96478.00
2024-01-20T09:47:07.329Z,96476.00
2024-01-20T09:48:07.444Z,96474.00
2024-01-20T09:49:07.431Z,96472.00
2024-01-20T09:50:07.364Z,96470.00
2024-01-20T09:51:07.345Z,96467.00
2024-01-20T09:52:07.320Z,96465.00
2024-01-20T09:53:07.325Z,96463.00
2024-01-20T09:54:07.433Z,96463.00
2024-01-20T09:55:07.347Z,96464.00
2024-01-20T09:56:07.372Z,96460.00
2024-01-20T09:57:07.361Z,96458.00
2024-01-20T09:58:07.347Z,96459.00
2024-01-20T09:59:07.366Z,96458.00
2024-01-20T10:00:07.383Z,96460.00
2024-01-20T10:01:07.411Z,96456.00
2024-01-20T10:02:07.353Z,96453.00
2024-01-20T10:03:09.523Z,96454.00
2024-01-20T10:04:07.371Z,96451.00
2024-01-20T10:05:07.393Z,96447.00
2024-01-20T10:06:07.368Z,96447.00
2024-01-20T10:07:07.342Z,96450.00
2024-01-20T10:08:07.565Z,96448.00
2024-01-20T10:09:07.518Z,96452.00
2024-01-20T10:10:07.360Z,96452.00
2024-01-20T10:11:07.342Z,96452.00
2024-01-20T10:12:07.376Z,96450.00
2024-01-20T10:13:07.375Z,96451.00
2024-01-20T10:14:07.372Z,96450.00
2024-01-20T10:15:07.405Z,96448.00
2024-01-20T10:16:07.340Z,96448.00
2024-01-20T10:17:07.378Z,96448.00
2024-01-20T10:18:07.601Z,96450.00
2024-01-20T10:19:07.368Z,96449.00
2024-01-20T10:20:07.411Z,96450.00
2024-01-20T10:21:07.694Z,96450.00
2024-01-20T10:22:07.406Z,96449.00
2024-01-20T10:23:07.536Z,96450.00
2024-01-20T10:24:07.401Z,96451.00
2024-01-20T10:25:07.363Z,96447.00
2024-01-20T10:26:07.466Z,96447.00
2024-01-20T10:27:07.400Z,96445.00
2024-01-20T10:28:07.408Z,96444.00
2024-01-20T10:29:07.399Z,96443.00
2024-01-20T10:30:07.426Z,96443.00
2024-01-20T10:31:07.418Z,96446.00
2024-01-20T10:32:07.421Z,96448.00
2024-01-20T10:33:09.892Z,96447.00
2024-01-20T10:34:07.507Z,96445.00
2024-01-20T10:35:07.557Z,96442.00
2024-01-20T10:36:07.476Z,96439.00
2024-01-20T10:37:07.434Z,96438.00
2024-01-20T10:38:07.430Z,96435.00
2024-01-20T10:39:07.455Z,96437.00
2024-01-20T10:40:07.416Z,96434.00
2024-01-20T10:41:07.423Z,96439.00
2024-01-20T10:42:07.538Z,96438.00
2024-01-20T10:43:07.421Z,96442.00
2024-01-20T10:44:07.451Z,96440.00
2024-01-20T10:45:07.461Z,96443.00
2024-01-20T10:46:07.446Z,96442.00
2024-01-20T10:47:07.456Z,96438.00
2024-01-20T10:48:10.924Z,96437.00
2024-01-20T10:49:07.491Z,96436.00
2024-01-20T10:50:07.441Z,96433.00
2024-01-20T10:51:10.090Z,96434.00
2024-01-20T10:52:07.534Z,96434.00
2024-01-20T10:53:07.453Z,96438.00
2024-01-20T10:54:09.846Z,96435.00
2024-01-20T10:55:12.913Z,96437.00
2024-01-20T10:56:07.553Z,96437.00
2024-01-20T10:57:07.599Z,96435.00
2024-01-20T10:58:07.598Z,96438.00
2024-01-20T10:59:07.632Z,96436.00
2024-01-20T11:00:07.668Z,96434.00
2024-01-20T11:01:07.657Z,96432.00
2024-01-20T11:02:07.638Z,96428.00
2024-01-20T11:03:07.733Z,96428.00
2024-01-20T11:04:07.805Z,96426.00
2024-01-20T11:05:07.722Z,96426.00
2024-01-20T11:06:07.842Z,96425.00
2024-01-20T11:07:07.795Z,96425.00
2024-01-20T11:08:07.799Z,96425.00
2024-01-20T11:09:07.813Z,96425.00
2024-01-20T11:10:07.819Z,96426.00
2024-01-20T11:11:07.834Z,96425.00
2024-01-20T11:12:07.923Z,96426.00
2024-01-20T11:13:07.897Z,96426.00
2024-01-20T11:14:07.951Z,96429.00
2024-01-20T11:15:07.962Z,96431.00
2024-01-20T11:16:08.006Z,96430.00
2024-01-20T11:17:08.044Z,96431.00
2024-01-20T11:18:08.154Z,96432.00
2024-01-20T11:19:08.273Z,96429.00
2024-01-20T11:20:08.143Z,96430.00
2024-01-20T11:21:08.215Z,96429.00
2024-01-20T11:22:08.257Z,96425.00
2024-01-20T11:23:08.267Z,96423.00
2024-01-20T11:24:08.608Z,96424.00
2024-01-20T11:25:08.602Z,96422.00
2024-01-20T11:26:08.448Z,96419.00
2024-01-20T11:27:08.613Z,96417.00
2024-01-20T11:28:08.547Z,96417.00
2024-01-20T11:29:08.593Z,96416.00
2024-01-20T11:30:08.668Z,96416.00
2024-01-20T11:31:08.717Z,96415.00
2024-01-20T11:32:08.793Z,96414.00
2024-01-20T11:33:09.100Z,96409.00
2024-01-20T11:34:09.121Z,96409.00
2024-01-20T11:35:08.968Z,96410.00
2024-01-20T11:36:09.047Z,96406.00
2024-01-20T11:37:09.118Z,96407.00
2024-01-20T11:38:09.178Z,96405.00
2024-01-20T11:39:09.283Z,96402.00
2024-01-20T11:40:09.266Z,96403.00
2024-01-20T11:41:09.350Z,96405.00
2024-01-20T11:42:10.899Z,96403.00
2024-01-20T11:43:09.401Z,96405.00
2024-01-20T11:44:09.444Z,96405.00
2024-01-20T11:45:09.460Z,96405.00
2024-01-20T11:46:09.395Z,96401.00
2024-01-20T11:47:09.428Z,96404.00
2024-01-20T11:48:13.895Z,96405.00
2024-01-20T11:49:10.517Z,96404.00
2024-01-20T11:50:09.461Z,96401.00
2024-01-20T11:51:09.433Z,96397.00
2024-01-20T11:52:09.436Z,96397.00
2024-01-20T11:53:09.421Z,96392.00
2024-01-20T11:54:11.339Z,96391.00
2024-01-20T11:55:09.409Z,96388.00
2024-01-20T11:56:09.423Z,96385.00
2024-01-20T11:57:09.461Z,96386.00
2024-01-20T11:58:09.438Z,96385.00
2024-01-20T11:59:09.524Z,96382.00
2024-01-20T12:00:10.593Z,96381.00
2024-01-20T12:01:09.557Z,96379.00
2024-01-20T12:02:09.418Z,96376.00
2024-01-20T12:03:09.445Z,96375.00
2024-01-20T12:04:09.436Z,96373.00
2024-01-20T12:05:15.928Z,96369.00
2024-01-20T12:06:13.045Z,96369.00
2024-01-20T12:07:09.501Z,96364.00
2024-01-20T12:08:09.421Z,96362.00
2024-01-20T12:09:09.477Z,96359.00
2024-01-20T12:10:09.455Z,96356.00
2024-01-20T12:11:09.502Z,96354.00
2024-01-20T12:12:09.509Z,96351.00
2024-01-20T12:13:09.447Z,96349.00
2024-01-20T12:14:09.499Z,96348.00
2024-01-20T12:15:09.483Z,96343.00
2024-01-20T12:16:09.480Z,96343.00
2024-01-20T12:17:09.439Z,96341.00
2024-01-20T12:18:09.574Z,96338.00
2024-01-20T12:19:09.551Z,96337.00
2024-01-20T12:20:09.471Z,96336.00
2024-01-20T12:21:09.486Z,96336.00
2024-01-20T12:22:09.464Z,96331.00
2024-01-20T12:23:09.459Z,96331.00
2024-01-20T12:24:09.502Z,96330.00
2024-01-20T12:25:09.470Z,96330.00
2024-01-20T12:26:09.478Z,96330.00
2024-01-20T12:27:09.509Z,96327.00
2024-01-20T12:28:09.468Z,96326.00
2024-01-20T12:29:09.516Z,96325.00
2024-01-20T12:30:09.525Z,96322.00
2024-01-20T12:31:10.439Z,96320.00
2024-01-20T12:32:09.478Z,96317.00
2024-01-20T12:33:09.577Z,96314.00
2024-01-20T12:34:09.563Z,96312.00
2024-01-20T12:35:09.494Z,96311.00
2024-01-20T12:36:09.508Z,96309.00
2024-01-20T12:37:09.495Z,96311.00
2024-01-20T12:38:09.514Z,96310.00
2024-01-20T12:39:09.527Z,96308.00
2024-01-20T12:40:09.507Z,96307.00
2024-01-20T12:41:09.477Z,96308.00
2024-01-20T12:42:09.500Z,96306.00
2024-01-20T12:43:09.500Z,96302.00
2024-01-20T12:44:09.494Z,96304.00
2024-01-20T12:45:09.514Z,96304.00
2024-01-20T12:46:09.494Z,96302.00
2024-01-20T12:47:09.525Z,96305.00
2024-01-20T12:48:09.568Z,96304.00
2024-01-20T12:49:09.578Z,96305.00
2024-01-20T12:50:09.598Z,96302.00
2024-01-20T12:51:09.507Z,96306.00
2024-01-20T12:52:09.480Z,96302.00
2024-01-20T12:53:09.492Z,96301.00
2024-01-20T12:54:09.559Z,96300.00
2024-01-20T12:55:09.523Z,96304.00
2024-01-20T12:56:09.523Z,96304.00
2024-01-20T12:57:09.517Z,96303.00
2024-01-20T12:58:09.527Z,96303.00
2024-01-20T12:59:09.496Z,96305.00
2024-01-20T13:00:09.561Z,96304.00
2024-01-20T13:01:09.616Z,96302.00
2024-01-20T13:02:09.567Z,96300.00
2024-01-20T13:03:09.607Z,96301.00
2024-01-20T13:04:09.540Z,96304.00
2024-01-20T13:05:09.718Z,96303.00
2024-01-20T13:06:09.805Z,96302.00
2024-01-20T13:07:12.242Z,96305.00
2024-01-20T13:08:09.630Z,96304.00
2024-01-20T13:09:09.684Z,96306.00
2024-01-20T13:10:09.667Z,96306.00
2024-01-20T13:11:09.659Z,96304.00
2024-01-20T13:12:09.948Z,96307.00
2024-01-20T13:13:09.737Z,96307.00
2024-01-20T13:14:09.699Z,96306.00
2024-01-20T13:15:09.778Z,96307.00
2024-01-20T13:16:09.786Z,96308.00
2024-01-20T13:17:09.652Z,96307.00
2024-01-20T13:18:10.207Z,96306.00
2024-01-20T13:19:09.843Z,96306.00
2024-01-20T13:20:09.710Z,96311.00
2024-01-20T13:21:09.674Z,96309.00
2024-01-20T13:22:09.665Z,96309.00
2024-01-20T13:23:09.676Z,96307.00
2024-01-20T13:24:09.717Z,96307.00
2024-01-20T13:25:09.756Z,96308.00
2024-01-20T13:26:09.667Z,96308.00
2024-01-20T13:27:09.689Z,96304.00
2024-01-20T13:28:09.669Z,96307.00
2024-01-20T13:29:09.663Z,96306.00
2024-01-20T13:30:09.735Z,96301.00
2024-01-20T13:31:09.644Z,96302.00
2024-01-20T13:32:09.664Z,96300.00
2024-01-20T13:33:09.737Z,96300.00
2024-01-20T13:34:09.821Z,96297.00
2024-01-20T13:35:09.688Z,96296.00
2024-01-20T13:36:09.737Z,96295.00
2024-01-20T13:37:09.666Z,96295.00
2024-01-20T13:38:09.899Z,96296.00
2024-01-20T13:39:09.739Z,96294.00
2024-01-20T13:40:09.751Z,96293.00
2024-01-20T13:41:09.741Z,96293.00
2024-01-20T13:42:09.807Z,96291.00
2024-01-20T13:43:09.790Z,96289.00
2024-01-20T13:44:09.874Z,96290.00
2024-01-20T13:45:09.932Z,96287.00
2024-01-20T13:46:09.916Z,96288.00
2024-01-20T13:47:09.958Z,96291.00
2024-01-20T13:48:10.135Z,96292.00
2024-01-20T13:49:12.065Z,96290.00
2024-01-20T13:50:10.099Z,96291.00
2024-01-20T13:51:10.131Z,96290.00
2024-01-20T13:52:10.057Z,96288.00
2024-01-20T13:53:10.056Z,96290.00
2024-01-20T13:54:10.096Z,96289.00
2024-01-20T13:55:10.050Z,96289.00
2024-01-20T13:56:10.060Z,96292.00
2024-01-20T13:57:10.120Z,96291.00
2024-01-20T13:58:10.062Z,96290.00
2024-01-20T13:59:10.185Z,96288.00
2024-01-20T14:00:10.098Z,96286.00
